sensor_id;sensor_type;location;lat;lon;timestamp;temperature;humidity
25963;DHT22;13760;52.588;13.406;2023-03-05T00:01:28;3.40;99.90
25963;DHT22;13760;52.588;13.406;2023-03-05T00:03:55;3.40;99.90
25963;DHT22;13760;52.588;13.406;2023-03-05T00:06:23;3.40;99.90
25963;DHT22;13760;52.588;13.406;2023-03-05T00:08:49;3.40;99.90
25963;DHT22;13760;52.588;13.406;2023-03-05T00:11:16;3.30;99.90
25963;DHT22;13760;52.588;13.406;2023-03-05T00:13:42;3.40;99.90
25963;DHT22;13760;52.588;13.406;2023-03-05T00:16:10;3.30;99.90
25963;DHT22;13760;52.588;13.406;2023-03-05T00:18:37;3.30;99.90
25963;DHT22;13760;52.588;13.406;2023-03-05T00:21:03;3.20;99.90
25963;DHT22;13760;52.588;13.406;2023-03-05T00:23:31;3.10;99.90
25963;DHT22;13760;52.588;13.406;2023-03-05T00:26:00;3.10;99.90
25963;DHT22;13760;52.588;13.406;2023-03-05T00:28:26;3.10;99.90
25963;DHT22;13760;52.588;13.406;2023-03-05T00:30:51;3.00;99.90
25963;DHT22;13760;52.588;13.406;2023-03-05T00:33:17;3.00;99.90
25963;DHT22;13760;52.588;13.406;2023-03-05T00:35:44;3.00;99.90
25963;DHT22;13760;52.588;13.406;2023-03-05T00:38:11;3.00;99.90
25963;DHT22;13760;52.588;13.406;2023-03-05T00:40:38;3.00;99.90
25963;DHT22;13760;52.588;13.406;2023-03-05T00:43:04;2.90;99.90
25963;DHT22;13760;52.588;13.406;2023-03-05T00:45:30;3.00;99.90
25963;DHT22;13760;52.588;13.406;2023-03-05T00:47:56;3.00;99.90
25963;DHT22;13760;52.588;13.406;2023-03-05T00:50:22;2.90;99.90
25963;DHT22;13760;52.588;13.406;2023-03-05T00:52:48;3.00;99.90
25963;DHT22;13760;52.588;13.406;2023-03-05T00:55:13;2.90;99.90
25963;DHT22;13760;52.588;13.406;2023-03-05T00:57:39;2.90;99.90
25963;DHT22;13760;52.588;13.406;2023-03-05T01:00:09;2.90;99.90
25963;DHT22;13760;52.588;13.406;2023-03-05T01:02:35;2.90;99.90
25963;DHT22;13760;52.588;13.406;2023-03-05T01:05:01;3.00;99.90
25963;DHT22;13760;52.588;13.406;2023-03-05T01:07:26;2.90;99.90
25963;DHT22;13760;52.588;13.406;2023-03-05T01:09:52;2.90;99.90
25963;DHT22;13760;52.588;13.406;2023-03-05T01:12:18;2.90;99.90
25963;DHT22;13760;52.588;13.406;2023-03-05T01:14:43;2.90;99.90
25963;DHT22;13760;52.588;13.406;2023-03-05T01:17:09;2.90;99.90
25963;DHT22;13760;52.588;13.406;2023-03-05T01:19:34;2.90;99.90
25963;DHT22;13760;52.588;13.406;2023-03-05T01:22:00;2.90;99.90
25963;DHT22;13760;52.588;13.406;2023-03-05T01:24:26;2.90;99.90
25963;DHT22;13760;52.588;13.406;2023-03-05T01:26:51;2.90;99.90
25963;DHT22;13760;52.588;13.406;2023-03-05T01:29:17;2.90;99.90
25963;DHT22;13760;52.588;13.406;2023-03-05T01:31:43;2.90;99.90
25963;DHT22;13760;52.588;13.406;2023-03-05T01:34:08;2.90;99.90
25963;DHT22;13760;52.588;13.406;2023-03-05T01:36:34;2.90;99.90
25963;DHT22;13760;52.588;13.406;2023-03-05T01:39:00;2.80;99.90
25963;DHT22;13760;52.588;13.406;2023-03-05T01:41:27;2.80;99.90
25963;DHT22;13760;52.588;13.406;2023-03-05T01:43:54;2.80;99.90
25963;DHT22;13760;52.588;13.406;2023-03-05T01:46:32;2.70;99.90
25963;DHT22;13760;52.588;13.406;2023-03-05T01:49:11;2.70;99.90
25963;DHT22;13760;52.588;13.406;2023-03-05T01:54:21;2.70;99.90
25963;DHT22;13760;52.588;13.406;2023-03-05T01:57:22;2.60;99.90
25963;DHT22;13760;52.588;13.406;2023-03-05T01:59:50;2.60;99.90
25963;DHT22;13760;52.588;13.406;2023-03-05T02:02:17;2.60;99.90
25963;DHT22;13760;52.588;13.406;2023-03-05T02:04:54;2.50;99.90
25963;DHT22;13760;52.588;13.406;2023-03-05T02:07:22;2.50;99.90
25963;DHT22;13760;52.588;13.406;2023-03-05T02:09:48;2.40;99.90
25963;DHT22;13760;52.588;13.406;2023-03-05T02:12:17;2.40;99.90
25963;DHT22;13760;52.588;13.406;2023-03-05T02:14:44;2.40;99.90
25963;DHT22;13760;52.588;13.406;2023-03-05T02:17:11;2.30;99.90
25963;DHT22;13760;52.588;13.406;2023-03-05T02:19:50;2.30;99.90
25963;DHT22;13760;52.588;13.406;2023-03-05T02:22:21;2.30;99.90
25963;DHT22;13760;52.588;13.406;2023-03-05T02:24:49;2.20;99.90
25963;DHT22;13760;52.588;13.406;2023-03-05T02:27:15;2.20;99.90
25963;DHT22;13760;52.588;13.406;2023-03-05T02:29:44;2.20;99.90
25963;DHT22;13760;52.588;13.406;2023-03-05T02:32:11;2.20;99.90
25963;DHT22;13760;52.588;13.406;2023-03-05T02:34:37;2.20;99.90
25963;DHT22;13760;52.588;13.406;2023-03-05T02:37:04;2.20;99.90
25963;DHT22;13760;52.588;13.406;2023-03-05T02:39:33;2.20;99.90
25963;DHT22;13760;52.588;13.406;2023-03-05T02:41:59;2.20;99.90
25963;DHT22;13760;52.588;13.406;2023-03-05T02:44:25;2.20;99.90
25963;DHT22;13760;52.588;13.406;2023-03-05T02:46:51;2.20;99.90
25963;DHT22;13760;52.588;13.406;2023-03-05T02:49:17;2.20;99.90
25963;DHT22;13760;52.588;13.406;2023-03-05T02:51:42;2.20;99.90
25963;DHT22;13760;52.588;13.406;2023-03-05T02:54:08;2.20;99.90
25963;DHT22;13760;52.588;13.406;2023-03-05T02:56:37;2.20;99.90
25963;DHT22;13760;52.588;13.406;2023-03-05T02:59:03;2.20;99.90
25963;DHT22;13760;52.588;13.406;2023-03-05T03:01:29;2.10;99.90
25963;DHT22;13760;52.588;13.406;2023-03-05T03:03:55;2.10;99.90
25963;DHT22;13760;52.588;13.406;2023-03-05T03:06:21;2.10;99.90
25963;DHT22;13760;52.588;13.406;2023-03-05T03:08:46;2.10;99.90
25963;DHT22;13760;52.588;13.406;2023-03-05T03:11:12;2.10;99.90
25963;DHT22;13760;52.588;13.406;2023-03-05T03:13:39;2.10;99.90
25963;DHT22;13760;52.588;13.406;2023-03-05T03:16:07;2.00;99.90
25963;DHT22;13760;52.588;13.406;2023-03-05T03:18:33;2.00;99.90
25963;DHT22;13760;52.588;13.406;2023-03-05T03:20:59;2.10;99.90
25963;DHT22;13760;52.588;13.406;2023-03-05T03:23:25;2.10;99.90
25963;DHT22;13760;52.588;13.406;2023-03-05T03:25:51;2.10;99.90
25963;DHT22;13760;52.588;13.406;2023-03-05T03:28:17;2.10;99.90
25963;DHT22;13760;52.588;13.406;2023-03-05T03:30:42;2.10;99.90
25963;DHT22;13760;52.588;13.406;2023-03-05T03:33:08;2.10;99.90
25963;DHT22;13760;52.588;13.406;2023-03-05T03:35:34;2.10;99.90
25963;DHT22;13760;52.588;13.406;2023-03-05T03:37:59;2.20;99.90
25963;DHT22;13760;52.588;13.406;2023-03-05T03:40:25;2.10;99.90
25963;DHT22;13760;52.588;13.406;2023-03-05T03:42:53;2.20;99.90
25963;DHT22;13760;52.588;13.406;2023-03-05T03:45:19;2.20;99.90
25963;DHT22;13760;52.588;13.406;2023-03-05T03:47:48;2.10;99.90
25963;DHT22;13760;52.588;13.406;2023-03-05T03:50:14;2.10;99.90
25963;DHT22;13760;52.588;13.406;2023-03-05T03:52:40;2.20;99.90
25963;DHT22;13760;52.588;13.406;2023-03-05T03:55:06;2.10;99.90
25963;DHT22;13760;52.588;13.406;2023-03-05T03:57:32;2.10;99.90
25963;DHT22;13760;52.588;13.406;2023-03-05T04:00:00;2.10;99.90
25963;DHT22;13760;52.588;13.406;2023-03-05T04:02:25;2.10;99.90
25963;DHT22;13760;52.588;13.406;2023-03-05T04:04:51;2.10;99.90
25963;DHT22;13760;52.588;13.406;2023-03-05T04:07:17;2.10;99.90
25963;DHT22;13760;52.588;13.406;2023-03-05T04:09:43;2.10;99.90
25963;DHT22;13760;52.588;13.406;2023-03-05T04:12:09;2.10;99.90
25963;DHT22;13760;52.588;13.406;2023-03-05T04:14:34;2.00;99.90
25963;DHT22;13760;52.588;13.406;2023-03-05T04:17:03;2.00;99.90
25963;DHT22;13760;52.588;13.406;2023-03-05T04:19:29;2.00;99.90
25963;DHT22;13760;52.588;13.406;2023-03-05T04:21:56;2.10;99.90
25963;DHT22;13760;52.588;13.406;2023-03-05T04:24:22;2.10;99.90
25963;DHT22;13760;52.588;13.406;2023-03-05T04:26:48;2.10;99.90
25963;DHT22;13760;52.588;13.406;2023-03-05T04:29:13;2.10;99.90
25963;DHT22;13760;52.588;13.406;2023-03-05T04:31:39;2.00;99.90
25963;DHT22;13760;52.588;13.406;2023-03-05T04:34:04;2.00;99.90
25963;DHT22;13760;52.588;13.406;2023-03-05T04:36:30;1.90;99.90
25963;DHT22;13760;52.588;13.406;2023-03-05T04:38:56;1.90;99.90
25963;DHT22;13760;52.588;13.406;2023-03-05T04:41:21;1.90;99.90
25963;DHT22;13760;52.588;13.406;2023-03-05T04:43:47;1.90;99.90
25963;DHT22;13760;52.588;13.406;2023-03-05T04:46:12;1.90;99.90
25963;DHT22;13760;52.588;13.406;2023-03-05T04:48:38;1.80;99.90
25963;DHT22;13760;52.588;13.406;2023-03-05T04:51:04;1.80;99.90
25963;DHT22;13760;52.588;13.406;2023-03-05T04:53:29;1.80;99.90
25963;DHT22;13760;52.588;13.406;2023-03-05T04:55:55;1.80;99.90
25963;DHT22;13760;52.588;13.406;2023-03-05T04:58:22;1.70;99.90
25963;DHT22;13760;52.588;13.406;2023-03-05T05:00:47;1.80;99.90
25963;DHT22;13760;52.588;13.406;2023-03-05T05:03:13;1.70;99.90
25963;DHT22;13760;52.588;13.406;2023-03-05T05:05:39;1.80;99.90
25963;DHT22;13760;52.588;13.406;2023-03-05T05:08:04;1.80;99.90
25963;DHT22;13760;52.588;13.406;2023-03-05T05:10:30;1.80;99.90
25963;DHT22;13760;52.588;13.406;2023-03-05T05:12:58;1.80;99.90
25963;DHT22;13760;52.588;13.406;2023-03-05T05:15:24;1.70;99.90
25963;DHT22;13760;52.588;13.406;2023-03-05T05:17:49;1.70;99.90
25963;DHT22;13760;52.588;13.406;2023-03-05T05:20:16;1.70;99.90
25963;DHT22;13760;52.588;13.406;2023-03-05T05:22:42;1.70;99.90
25963;DHT22;13760;52.588;13.406;2023-03-05T05:25:08;1.70;99.90
25963;DHT22;13760;52.588;13.406;2023-03-05T05:27:35;1.70;99.90
25963;DHT22;13760;52.588;13.406;2023-03-05T05:30:00;1.60;99.90
25963;DHT22;13760;52.588;13.406;2023-03-05T05:32:26;1.60;99.90
25963;DHT22;13760;52.588;13.406;2023-03-05T05:34:56;1.60;99.90
25963;DHT22;13760;52.588;13.406;2023-03-05T05:37:22;1.50;99.90
25963;DHT22;13760;52.588;13.406;2023-03-05T05:39:48;1.50;99.90
25963;DHT22;13760;52.588;13.406;2023-03-05T05:42:17;1.50;99.90
25963;DHT22;13760;52.588;13.406;2023-03-05T05:44:43;1.40;99.90
25963;DHT22;13760;52.588;13.406;2023-03-05T05:47:08;1.40;99.90
25963;DHT22;13760;52.588;13.406;2023-03-05T05:49:34;1.40;99.90
25963;DHT22;13760;52.588;13.406;2023-03-05T05:51:59;1.30;99.90
25963;DHT22;13760;52.588;13.406;2023-03-05T05:54:25;1.30;99.90
25963;DHT22;13760;52.588;13.406;2023-03-05T05:56:51;1.30;99.90
25963;DHT22;13760;52.588;13.406;2023-03-05T05:59:16;1.30;99.90
25963;DHT22;13760;52.588;13.406;2023-03-05T06:01:42;1.30;99.90
25963;DHT22;13760;52.588;13.406;2023-03-05T06:04:08;1.30;99.90
25963;DHT22;13760;52.588;13.406;2023-03-05T06:06:33;1.30;99.90
25963;DHT22;13760;52.588;13.406;2023-03-05T06:08:59;1.30;99.90
25963;DHT22;13760;52.588;13.406;2023-03-05T06:11:25;1.30;99.90
25963;DHT22;13760;52.588;13.406;2023-03-05T06:13:54;1.30;99.90
25963;DHT22;13760;52.588;13.406;2023-03-05T06:16:22;1.40;99.90
25963;DHT22;13760;52.588;13.406;2023-03-05T06:18:49;1.40;99.90
25963;DHT22;13760;52.588;13.406;2023-03-05T06:21:16;1.40;99.90
25963;DHT22;13760;52.588;13.406;2023-03-05T06:23:44;1.40;99.90
25963;DHT22;13760;52.588;13.406;2023-03-05T06:26:12;1.40;99.90
25963;DHT22;13760;52.588;13.406;2023-03-05T06:28:38;1.50;99.90
25963;DHT22;13760;52.588;13.406;2023-03-05T06:31:08;1.50;99.90
25963;DHT22;13760;52.588;13.406;2023-03-05T06:33:35;1.50;99.90
25963;DHT22;13760;52.588;13.406;2023-03-05T06:36:13;1.50;99.90
25963;DHT22;13760;52.588;13.406;2023-03-05T06:38:40;1.60;99.90
25963;DHT22;13760;52.588;13.406;2023-03-05T06:41:08;1.70;99.90
25963;DHT22;13760;52.588;13.406;2023-03-05T06:43:37;1.80;99.90
25963;DHT22;13760;52.588;13.406;2023-03-05T06:46:10;1.80;99.90
25963;DHT22;13760;52.588;13.406;2023-03-05T06:48:37;1.80;99.90
25963;DHT22;13760;52.588;13.406;2023-03-05T06:51:02;1.90;99.90
25963;DHT22;13760;52.588;13.406;2023-03-05T06:53:28;1.90;99.90
25963;DHT22;13760;52.588;13.406;2023-03-05T06:55:54;2.00;99.90
25963;DHT22;13760;52.588;13.406;2023-03-05T06:58:19;2.10;99.90
25963;DHT22;13760;52.588;13.406;2023-03-05T07:00:45;2.10;99.90
25963;DHT22;13760;52.588;13.406;2023-03-05T07:03:12;2.10;99.90
25963;DHT22;13760;52.588;13.406;2023-03-05T07:06:06;2.20;99.90
25963;DHT22;13760;52.588;13.406;2023-03-05T07:08:32;2.20;99.90
25963;DHT22;13760;52.588;13.406;2023-03-05T07:10:58;2.20;99.90
25963;DHT22;13760;52.588;13.406;2023-03-05T07:13:28;2.30;99.90
25963;DHT22;13760;52.588;13.406;2023-03-05T07:15:54;2.40;99.90
25963;DHT22;13760;52.588;13.406;2023-03-05T07:18:20;2.40;99.90
25963;DHT22;13760;52.588;13.406;2023-03-05T07:20:46;2.40;99.90
25963;DHT22;13760;52.588;13.406;2023-03-05T07:23:12;2.50;99.90
25963;DHT22;13760;52.588;13.406;2023-03-05T07:25:38;2.50;99.90
25963;DHT22;13760;52.588;13.406;2023-03-05T07:28:04;2.60;99.90
25963;DHT22;13760;52.588;13.406;2023-03-05T07:30:32;2.60;99.90
25963;DHT22;13760;52.588;13.406;2023-03-05T07:32:57;2.60;99.90
25963;DHT22;13760;52.588;13.406;2023-03-05T07:35:23;2.60;99.90
25963;DHT22;13760;52.588;13.406;2023-03-05T07:37:51;2.60;99.90
25963;DHT22;13760;52.588;13.406;2023-03-05T07:40:20;2.70;99.90
25963;DHT22;13760;52.588;13.406;2023-03-05T07:42:47;2.70;99.90
25963;DHT22;13760;52.588;13.406;2023-03-05T07:45:13;2.70;99.90
25963;DHT22;13760;52.588;13.406;2023-03-05T07:47:38;2.80;99.90
25963;DHT22;13760;52.588;13.406;2023-03-05T07:50:04;2.80;99.90
25963;DHT22;13760;52.588;13.406;2023-03-05T07:52:30;2.90;99.90
25963;DHT22;13760;52.588;13.406;2023-03-05T07:54:56;2.90;99.90
25963;DHT22;13760;52.588;13.406;2023-03-05T07:57:23;2.90;99.90
25963;DHT22;13760;52.588;13.406;2023-03-05T07:59:48;3.00;99.90
25963;DHT22;13760;52.588;13.406;2023-03-05T08:02:14;3.10;99.90
25963;DHT22;13760;52.588;13.406;2023-03-05T08:04:40;3.10;99.90
25963;DHT22;13760;52.588;13.406;2023-03-05T08:07:07;3.20;99.90
25963;DHT22;13760;52.588;13.406;2023-03-05T08:09:33;3.20;99.90
25963;DHT22;13760;52.588;13.406;2023-03-05T08:11:59;3.20;99.90
25963;DHT22;13760;52.588;13.406;2023-03-05T08:14:24;3.20;99.90
25963;DHT22;13760;52.588;13.406;2023-03-05T08:16:50;3.20;99.90
25963;DHT22;13760;52.588;13.406;2023-03-05T08:19:18;3.20;99.90
25963;DHT22;13760;52.588;13.406;2023-03-05T08:21:44;3.20;99.90
25963;DHT22;13760;52.588;13.406;2023-03-05T08:24:11;3.30;99.90
25963;DHT22;13760;52.588;13.406;2023-03-05T08:26:57;3.30;99.90
25963;DHT22;13760;52.588;13.406;2023-03-05T08:29:24;3.40;99.90
25963;DHT22;13760;52.588;13.406;2023-03-05T08:31:49;3.40;99.90
25963;DHT22;13760;52.588;13.406;2023-03-05T08:34:19;3.50;99.90
25963;DHT22;13760;52.588;13.406;2023-03-05T08:36:45;3.50;99.90
25963;DHT22;13760;52.588;13.406;2023-03-05T08:39:11;3.60;99.90
25963;DHT22;13760;52.588;13.406;2023-03-05T08:41:36;3.60;99.90
25963;DHT22;13760;52.588;13.406;2023-03-05T08:44:23;3.60;99.90
25963;DHT22;13760;52.588;13.406;2023-03-05T08:46:48;3.60;99.90
25963;DHT22;13760;52.588;13.406;2023-03-05T08:49:14;3.70;99.90
25963;DHT22;13760;52.588;13.406;2023-03-05T08:51:39;3.90;99.90
25963;DHT22;13760;52.588;13.406;2023-03-05T08:54:05;4.10;99.90
25963;DHT22;13760;52.588;13.406;2023-03-05T08:56:33;4.40;99.90
25963;DHT22;13760;52.588;13.406;2023-03-05T08:58:59;4.60;99.90
25963;DHT22;13760;52.588;13.406;2023-03-05T09:01:25;4.60;99.90
25963;DHT22;13760;52.588;13.406;2023-03-05T09:03:54;4.70;99.90
25963;DHT22;13760;52.588;13.406;2023-03-05T09:06:20;4.60;99.90
25963;DHT22;13760;52.588;13.406;2023-03-05T09:08:46;4.60;99.90
25963;DHT22;13760;52.588;13.406;2023-03-05T09:11:12;4.70;99.90
25963;DHT22;13760;52.588;13.406;2023-03-05T09:13:38;4.90;99.90
25963;DHT22;13760;52.588;13.406;2023-03-05T09:16:10;5.00;99.90
25963;DHT22;13760;52.588;13.406;2023-03-05T09:18:36;5.00;99.90
25963;DHT22;13760;52.588;13.406;2023-03-05T09:21:06;5.10;99.90
25963;DHT22;13760;52.588;13.406;2023-03-05T09:23:31;5.00;99.90
25963;DHT22;13760;52.588;13.406;2023-03-05T09:26:00;5.00;99.90
25963;DHT22;13760;52.588;13.406;2023-03-05T09:28:26;4.90;99.90
25963;DHT22;13760;52.588;13.406;2023-03-05T09:30:51;4.80;99.90
25963;DHT22;13760;52.588;13.406;2023-03-05T09:33:17;4.80;99.90
25963;DHT22;13760;52.588;13.406;2023-03-05T09:35:43;4.70;99.90
25963;DHT22;13760;52.588;13.406;2023-03-05T09:38:08;4.60;99.90
25963;DHT22;13760;52.588;13.406;2023-03-05T09:41:04;4.60;99.90
25963;DHT22;13760;52.588;13.406;2023-03-05T09:43:44;4.50;99.90
25963;DHT22;13760;52.588;13.406;2023-03-05T09:46:35;4.40;99.90
25963;DHT22;13760;52.588;13.406;2023-03-05T09:49:20;4.50;99.90
25963;DHT22;13760;52.588;13.406;2023-03-05T09:51:53;4.40;99.90
25963;DHT22;13760;52.588;13.406;2023-03-05T09:54:30;4.30;99.90
25963;DHT22;13760;52.588;13.406;2023-03-05T10:02:34;4.20;99.90
25963;DHT22;13760;52.588;13.406;2023-03-05T10:05:36;4.20;99.90
25963;DHT22;13760;52.588;13.406;2023-03-05T10:08:11;4.10;99.90
25963;DHT22;13760;52.588;13.406;2023-03-05T10:10:46;4.10;99.90
25963;DHT22;13760;52.588;13.406;2023-03-05T10:13:26;4.10;99.90
25963;DHT22;13760;52.588;13.406;2023-03-05T10:16:27;4.00;99.90
25963;DHT22;13760;52.588;13.406;2023-03-05T10:22:25;4.00;99.90
25963;DHT22;13760;52.588;13.406;2023-03-05T10:27:45;4.10;99.90
25963;DHT22;13760;52.588;13.406;2023-03-05T10:30:32;4.00;99.90
25963;DHT22;13760;52.588;13.406;2023-03-05T10:36:30;3.80;99.90
25963;DHT22;13760;52.588;13.406;2023-03-05T10:44:59;3.90;99.90
25963;DHT22;13760;52.588;13.406;2023-03-05T10:47:54;4.00;99.90
25963;DHT22;13760;52.588;13.406;2023-03-05T10:50:32;4.00;99.90
25963;DHT22;13760;52.588;13.406;2023-03-05T10:55:47;4.20;99.90
25963;DHT22;13760;52.588;13.406;2023-03-05T10:58:16;4.30;99.90
25963;DHT22;13760;52.588;13.406;2023-03-05T11:01:05;4.40;99.90
25963;DHT22;13760;52.588;13.406;2023-03-05T11:04:06;4.40;99.90
25963;DHT22;13760;52.588;13.406;2023-03-05T11:06:42;4.40;99.90
25963;DHT22;13760;52.588;13.406;2023-03-05T11:12:22;4.20;99.90
25963;DHT22;13760;52.588;13.406;2023-03-05T11:17:37;3.80;99.90
25963;DHT22;13760;52.588;13.406;2023-03-05T11:25:52;3.40;99.90
25963;DHT22;13760;52.588;13.406;2023-03-05T11:28:37;3.40;99.90
25963;DHT22;13760;52.588;13.406;2023-03-05T11:36:24;3.50;99.90
25963;DHT22;13760;52.588;13.406;2023-03-05T11:39:35;3.60;99.90
25963;DHT22;13760;52.588;13.406;2023-03-05T11:41:42;3.60;99.90
25963;DHT22;13760;52.588;13.406;2023-03-05T11:44:29;3.70;99.90
25963;DHT22;13760;52.588;13.406;2023-03-05T11:49:51;3.80;99.90
25963;DHT22;13760;52.588;13.406;2023-03-05T11:52:25;3.90;99.90
25963;DHT22;13760;52.588;13.406;2023-03-05T11:57:23;4.40;99.90
25963;DHT22;13760;52.588;13.406;2023-03-05T12:00:17;4.60;99.90
25963;DHT22;13760;52.588;13.406;2023-03-05T12:02:43;4.70;99.90
25963;DHT22;13760;52.588;13.406;2023-03-05T12:05:14;4.90;99.90
25963;DHT22;13760;52.588;13.406;2023-03-05T12:07:42;5.00;99.90
25963;DHT22;13760;52.588;13.406;2023-03-05T12:10:21;5.10;99.90
25963;DHT22;13760;52.588;13.406;2023-03-05T12:13:04;5.10;99.90
25963;DHT22;13760;52.588;13.406;2023-03-05T12:15:37;5.10;99.90
25963;DHT22;13760;52.588;13.406;2023-03-05T12:20:59;5.00;99.90
25963;DHT22;13760;52.588;13.406;2023-03-05T12:23:27;5.00;99.90
25963;DHT22;13760;52.588;13.406;2023-03-05T12:25:58;4.80;99.90
25963;DHT22;13760;52.588;13.406;2023-03-05T12:31:11;4.60;99.90
25963;DHT22;13760;52.588;13.406;2023-03-05T12:33:49;4.60;99.90
25963;DHT22;13760;52.588;13.406;2023-03-05T12:36:32;4.60;99.90
25963;DHT22;13760;52.588;13.406;2023-03-05T12:38:57;4.70;99.90
25963;DHT22;13760;52.588;13.406;2023-03-05T12:46:29;4.90;99.90
25963;DHT22;13760;52.588;13.406;2023-03-05T12:48:57;5.00;99.90
25963;DHT22;13760;52.588;13.406;2023-03-05T12:51:32;5.10;99.90
25963;DHT22;13760;52.588;13.406;2023-03-05T12:56:58;5.20;99.90
25963;DHT22;13760;52.588;13.406;2023-03-05T13:05:22;5.20;99.90
25963;DHT22;13760;52.588;13.406;2023-03-05T13:07:49;5.20;99.90
25963;DHT22;13760;52.588;13.406;2023-03-05T13:10:27;5.10;99.90
25963;DHT22;13760;52.588;13.406;2023-03-05T13:12:54;5.10;99.90
25963;DHT22;13760;52.588;13.406;2023-03-05T13:15:23;5.10;99.90
25963;DHT22;13760;52.588;13.406;2023-03-05T13:17:59;5.00;99.90
25963;DHT22;13760;52.588;13.406;2023-03-05T13:23:19;5.10;99.90
25963;DHT22;13760;52.588;13.406;2023-03-05T13:26:11;5.20;99.90
25963;DHT22;13760;52.588;13.406;2023-03-05T13:28:40;5.10;99.90
25963;DHT22;13760;52.588;13.406;2023-03-05T13:31:13;5.10;99.90
25963;DHT22;13760;52.588;13.406;2023-03-05T13:33:39;5.10;99.90
25963;DHT22;13760;52.588;13.406;2023-03-05T13:36:13;5.00;99.90
25963;DHT22;13760;52.588;13.406;2023-03-05T13:38:43;5.00;99.90
25963;DHT22;13760;52.588;13.406;2023-03-05T13:41:28;4.90;99.90
25963;DHT22;13760;52.588;13.406;2023-03-05T13:43:56;4.90;99.90
25963;DHT22;13760;52.588;13.406;2023-03-05T13:46:36;4.90;99.90
25963;DHT22;13760;52.588;13.406;2023-03-05T13:49:16;4.80;99.90
25963;DHT22;13760;52.588;13.406;2023-03-05T13:51:46;4.70;99.90
25963;DHT22;13760;52.588;13.406;2023-03-05T13:54:14;4.60;99.90
25963;DHT22;13760;52.588;13.406;2023-03-05T13:56:55;4.60;99.90
25963;DHT22;13760;52.588;13.406;2023-03-05T13:59:24;4.50;99.90
25963;DHT22;13760;52.588;13.406;2023-03-05T14:01:52;4.50;99.90
25963;DHT22;13760;52.588;13.406;2023-03-05T14:04:21;4.50;99.90
25963;DHT22;13760;52.588;13.406;2023-03-05T14:07:05;4.50;99.90
25963;DHT22;13760;52.588;13.406;2023-03-05T14:09:44;4.50;99.90
25963;DHT22;13760;52.588;13.406;2023-03-05T14:12:39;4.40;99.90
25963;DHT22;13760;52.588;13.406;2023-03-05T14:15:24;4.40;99.90
25963;DHT22;13760;52.588;13.406;2023-03-05T14:17:51;4.50;99.90
25963;DHT22;13760;52.588;13.406;2023-03-05T14:20:27;4.50;99.90
25963;DHT22;13760;52.588;13.406;2023-03-05T14:22:55;4.50;99.90
25963;DHT22;13760;52.588;13.406;2023-03-05T14:25:38;4.50;99.90
25963;DHT22;13760;52.588;13.406;2023-03-05T14:28:15;4.50;99.90
25963;DHT22;13760;52.588;13.406;2023-03-05T14:30:49;4.50;99.90
25963;DHT22;13760;52.588;13.406;2023-03-05T14:33:26;4.40;99.90
25963;DHT22;13760;52.588;13.406;2023-03-05T14:35:52;4.40;99.90
25963;DHT22;13760;52.588;13.406;2023-03-05T14:38:23;4.40;99.90
25963;DHT22;13760;52.588;13.406;2023-03-05T14:40:49;4.30;99.90
25963;DHT22;13760;52.588;13.406;2023-03-05T14:43:14;4.30;99.90
25963;DHT22;13760;52.588;13.406;2023-03-05T14:45:41;4.20;99.90
25963;DHT22;13760;52.588;13.406;2023-03-05T14:48:13;4.20;99.90
25963;DHT22;13760;52.588;13.406;2023-03-05T14:50:44;4.10;99.90
25963;DHT22;13760;52.588;13.406;2023-03-05T14:53:16;4.10;99.90
25963;DHT22;13760;52.588;13.406;2023-03-05T14:55:52;4.00;99.90
25963;DHT22;13760;52.588;13.406;2023-03-05T14:58:23;3.90;99.90
25963;DHT22;13760;52.588;13.406;2023-03-05T15:00:51;3.90;99.90
25963;DHT22;13760;52.588;13.406;2023-03-05T15:03:18;3.90;99.90
25963;DHT22;13760;52.588;13.406;2023-03-05T15:05:47;3.90;99.90
25963;DHT22;13760;52.588;13.406;2023-03-05T15:08:20;3.90;99.90
25963;DHT22;13760;52.588;13.406;2023-03-05T15:10:46;3.90;99.90
25963;DHT22;13760;52.588;13.406;2023-03-05T15:13:13;3.90;99.90
25963;DHT22;13760;52.588;13.406;2023-03-05T15:15:40;3.90;99.90
25963;DHT22;13760;52.588;13.406;2023-03-05T15:18:06;3.90;99.90
25963;DHT22;13760;52.588;13.406;2023-03-05T15:20:34;3.90;99.90
25963;DHT22;13760;52.588;13.406;2023-03-05T15:22:59;3.90;99.90
25963;DHT22;13760;52.588;13.406;2023-03-05T15:25:25;3.80;99.90
25963;DHT22;13760;52.588;13.406;2023-03-05T15:27:53;3.80;99.90
25963;DHT22;13760;52.588;13.406;2023-03-05T15:30:26;3.80;99.90
25963;DHT22;13760;52.588;13.406;2023-03-05T15:32:53;3.80;99.90
25963;DHT22;13760;52.588;13.406;2023-03-05T15:35:19;3.80;99.90
25963;DHT22;13760;52.588;13.406;2023-03-05T15:37:45;3.80;99.90
25963;DHT22;13760;52.588;13.406;2023-03-05T15:40:11;3.80;99.90
25963;DHT22;13760;52.588;13.406;2023-03-05T15:42:42;3.80;99.90
25963;DHT22;13760;52.588;13.406;2023-03-05T15:45:23;3.80;99.90
25963;DHT22;13760;52.588;13.406;2023-03-05T15:51:26;3.80;99.90
25963;DHT22;13760;52.588;13.406;2023-03-05T15:53:53;3.70;99.90
25963;DHT22;13760;52.588;13.406;2023-03-05T15:56:19;3.70;99.90
25963;DHT22;13760;52.588;13.406;2023-03-05T15:58:44;3.70;99.90
25963;DHT22;13760;52.588;13.406;2023-03-05T16:01:12;3.70;99.90
25963;DHT22;13760;52.588;13.406;2023-03-05T16:03:39;3.60;99.90
25963;DHT22;13760;52.588;13.406;2023-03-05T16:06:05;3.60;99.90
25963;DHT22;13760;52.588;13.406;2023-03-05T16:08:33;3.60;99.90
25963;DHT22;13760;52.588;13.406;2023-03-05T16:10:59;3.50;99.90
25963;DHT22;13760;52.588;13.406;2023-03-05T16:13:25;3.50;99.90
25963;DHT22;13760;52.588;13.406;2023-03-05T16:15:54;3.50;99.90
25963;DHT22;13760;52.588;13.406;2023-03-05T16:18:20;3.40;99.90
25963;DHT22;13760;52.588;13.406;2023-03-05T16:20:47;3.40;99.90
25963;DHT22;13760;52.588;13.406;2023-03-05T16:23:13;3.40;99.90
25963;DHT22;13760;52.588;13.406;2023-03-05T16:25:39;3.30;99.90
25963;DHT22;13760;52.588;13.406;2023-03-05T16:28:04;3.30;99.90
25963;DHT22;13760;52.588;13.406;2023-03-05T16:30:30;3.20;99.90
25963;DHT22;13760;52.588;13.406;2023-03-05T16:32:57;3.20;99.90
25963;DHT22;13760;52.588;13.406;2023-03-05T16:35:23;3.20;99.90
25963;DHT22;13760;52.588;13.406;2023-03-05T16:37:48;3.20;99.90
25963;DHT22;13760;52.588;13.406;2023-03-05T16:40:14;3.20;99.90
25963;DHT22;13760;52.588;13.406;2023-03-05T16:42:40;3.20;99.90
25963;DHT22;13760;52.588;13.406;2023-03-05T16:45:06;3.10;99.90
25963;DHT22;13760;52.588;13.406;2023-03-05T16:47:35;3.10;99.90
25963;DHT22;13760;52.588;13.406;2023-03-05T16:50:01;3.10;99.90
25963;DHT22;13760;52.588;13.406;2023-03-05T16:52:27;3.10;99.90
25963;DHT22;13760;52.588;13.406;2023-03-05T16:54:53;3.10;99.90
25963;DHT22;13760;52.588;13.406;2023-03-05T16:57:18;3.00;99.90